createdAt,value
2023-06-22T00:02:26.693Z,69.27
2023-06-22T00:04:55.151Z,68.99
2023-06-22T00:07:25.927Z,68.70
2023-06-22T00:09:54.859Z,68.53
2023-06-22T00:12:22.439Z,68.26
2023-06-22T00:14:54.253Z,68.65
2023-06-22T00:17:21.835Z,68.89
2023-06-22T00:19:56.732Z,68.98
2023-06-22T00:22:30.333Z,69.05
2023-06-22T00:25:00.510Z,69.21
2023-06-22T00:27:29.292Z,69.09
2023-06-22T00:29:56.373Z,69.31
2023-06-22T00:32:23.254Z,69.03
2023-06-22T00:34:51.487Z,69.34
2023-06-22T00:37:19.302Z,69.29
2023-06-22T00:39:46.232Z,68.85
2023-06-22T00:42:12.981Z,68.92
2023-06-22T00:44:40.802Z,69.04
2023-06-22T00:47:08.773Z,68.57
2023-06-22T00:49:36.662Z,68.69
2023-06-22T00:52:04.518Z,68.73
2023-06-22T00:54:32.226Z,68.63
2023-06-22T00:59:46.722Z,68.69
2023-06-22T01:02:13.779Z,68.69
2023-06-22T01:04:41.805Z,68.98
2023-06-22T01:07:08.825Z,68.74
2023-06-22T01:09:45.896Z,68.60
2023-06-22T01:12:13.557Z,68.71
2023-06-22T01:14:53.542Z,68.56
2023-06-22T01:17:21.377Z,68.37
2023-06-22T01:19:57.365Z,68.58
2023-06-22T01:22:34.398Z,68.71
2023-06-22T01:25:15.298Z,68.60
2023-06-22T01:27:57.889Z,68.69
2023-06-22T01:30:28.115Z,68.38
2023-06-22T01:32:59.407Z,68.31
2023-06-22T01:35:28.022Z,68.25
2023-06-22T01:37:57.044Z,68.45
2023-06-22T01:40:25.811Z,68.19
2023-06-22T01:42:53.095Z,67.71
2023-06-22T01:45:21.200Z,68.31
2023-06-22T01:47:49.581Z,68.38
2023-06-22T01:50:17.233Z,68.65
2023-06-22T01:52:44.844Z,69.03
2023-06-22T01:55:12.527Z,68.96
2023-06-22T01:57:41.455Z,68.72
2023-06-22T02:00:20.098Z,68.50
2023-06-22T02:02:58.529Z,68.31
2023-06-22T02:05:34.332Z,68.84
2023-06-22T02:08:19.987Z,68.94
2023-06-22T02:10:48.879Z,69.09
2023-06-22T02:13:17.632Z,69.33
2023-06-22T02:15:45.534Z,69.13
2023-06-22T02:18:14.405Z,69.17
2023-06-22T02:20:42.009Z,69.15
2023-06-22T02:23:10.216Z,69.36
2023-06-22T02:25:38.805Z,69.47
2023-06-22T02:28:06.343Z,69.69
2023-06-22T02:30:33.907Z,69.70
2023-06-22T02:33:01.568Z,69.69
2023-06-22T02:35:35.093Z,69.48
2023-06-22T02:38:04.043Z,69.64
2023-06-22T02:40:32.396Z,69.73
2023-06-22T02:43:03.562Z,69.57
2023-06-22T02:45:31.683Z,69.56
2023-06-22T02:47:59.580Z,69.29
2023-06-22T02:54:14.024Z,68.71
2023-06-22T02:56:42.190Z,68.41
2023-06-22T02:59:09.199Z,67.87
2023-06-22T03:01:41.772Z,67.87
2023-06-22T03:04:25.911Z,67.53
2023-06-22T03:06:53.571Z,67.82
2023-06-22T03:09:21.833Z,67.48
2023-06-22T03:11:48.936Z,68.12
2023-06-22T03:14:16.535Z,67.82
2023-06-22T03:16:43.519Z,67.89
2023-06-22T03:19:10.619Z,67.58
2023-06-22T03:21:39.706Z,68.04
2023-06-22T03:24:08.380Z,68.05
2023-06-22T03:26:35.663Z,68.00
2023-06-22T03:29:02.657Z,67.82
2023-06-22T03:31:30.978Z,67.90
2023-06-22T03:33:58.188Z,67.42
2023-06-22T03:36:25.280Z,67.43
2023-06-22T03:38:52.946Z,67.65
2023-06-22T03:41:19.869Z,67.01
2023-06-22T03:43:47.992Z,67.22
2023-06-22T03:46:16.016Z,66.92
2023-06-22T03:48:44.035Z,66.84
2023-06-22T03:51:11.045Z,66.13
2023-06-22T03:53:37.961Z,65.80
2023-06-22T03:56:04.968Z,66.13
2023-06-22T03:58:34.138Z,65.73
2023-06-22T04:01:01.338Z,65.36
2023-06-22T04:03:28.346Z,65.29
2023-06-22T04:05:55.461Z,64.89
2023-06-22T04:08:22.413Z,64.87
2023-06-22T04:10:49.287Z,64.59
2023-06-22T04:13:16.207Z,64.50
2023-06-22T04:15:43.289Z,65.01
2023-06-22T04:18:10.319Z,64.45
2023-06-22T04:20:37.769Z,64.19
2023-06-22T04:23:04.777Z,64.13
2023-06-22T04:25:31.960Z,63.81
2023-06-22T04:27:59.108Z,64.09
2023-06-22T04:30:26.165Z,63.45
2023-06-22T04:32:59.317Z,63.60
2023-06-22T04:35:26.415Z,63.55
2023-06-22T04:37:56.141Z,63.09
2023-06-22T04:40:24.457Z,62.56
2023-06-22T04:42:55.015Z,62.66
2023-06-22T04:45:22.690Z,63.13
2023-06-22T04:47:50.477Z,63.21
2023-06-22T04:50:18.555Z,62.75
2023-06-22T04:52:46.589Z,62.54
2023-06-22T04:55:15.709Z,62.13
2023-06-22T04:57:49.322Z,61.46
2023-06-22T05:00:24.085Z,61.68
2023-06-22T05:02:51.345Z,60.97
2023-06-22T05:05:18.998Z,61.63
2023-06-22T05:07:53.944Z,60.86
2023-06-22T05:10:21.135Z,60.01
2023-06-22T05:12:48.191Z,59.71
2023-06-22T05:15:16.227Z,59.58
2023-06-22T05:17:46.755Z,58.45
2023-06-22T05:20:14.217Z,58.55
2023-06-22T05:22:43.991Z,57.84
2023-06-22T05:25:12.322Z,58.68
2023-06-22T05:27:40.682Z,58.79
2023-06-22T05:30:09.066Z,58.53
2023-06-22T05:32:37.272Z,57.86
2023-06-22T05:35:05.163Z,58.00
2023-06-22T05:37:32.141Z,58.02
2023-06-22T05:39:59.163Z,57.84
2023-06-22T05:42:27.064Z,57.37
2023-06-22T05:44:54.569Z,57.16
2023-06-22T05:47:21.886Z,57.66
2023-06-22T05:49:48.919Z,57.22
2023-06-22T05:52:15.940Z,56.51
2023-06-22T05:54:44.122Z,56.98
2023-06-22T05:57:11.031Z,57.01
2023-06-22T05:59:38.272Z,56.66
2023-06-22T06:02:06.216Z,56.06
2023-06-22T06:04:33.267Z,55.56
2023-06-22T06:07:00.177Z,55.37
2023-06-22T06:09:27.126Z,55.52
2023-06-22T06:11:54.056Z,54.41
2023-06-22T06:14:21.483Z,54.58
2023-06-22T06:16:49.954Z,54.09
2023-06-22T06:19:17.013Z,54.25
2023-06-22T06:21:43.914Z,54.15
2023-06-22T06:24:10.794Z,52.95
2023-06-22T06:26:37.733Z,53.33
2023-06-22T06:29:04.739Z,52.32
2023-06-22T06:31:31.803Z,51.57
2023-06-22T06:33:58.857Z,51.40
2023-06-22T06:36:25.762Z,50.20
2023-06-22T06:38:52.844Z,50.18
2023-06-22T06:41:20.529Z,50.63
2023-06-22T06:43:47.624Z,49.97
2023-06-22T06:46:14.673Z,49.47
2023-06-22T06:48:41.686Z,48.84
2023-06-22T06:51:11.568Z,47.70
2023-06-22T06:53:41.380Z,47.13
2023-06-22T06:56:08.450Z,45.21
2023-06-22T06:58:35.311Z,46.25
2023-06-22T07:01:02.324Z,46.11
2023-06-22T07:03:29.193Z,44.91
2023-06-22T07:05:55.863Z,44.19
2023-06-22T07:08:22.681Z,43.53
2023-06-22T07:10:49.365Z,44.50
2023-06-22T07:13:16.091Z,44.32
2023-06-22T07:15:43.366Z,43.41
2023-06-22T07:18:10.203Z,43.59
2023-06-22T07:20:37.038Z,42.27
2023-06-22T07:23:04.454Z,42.94
2023-06-22T07:25:31.333Z,42.98
2023-06-22T07:28:05.733Z,42.81
2023-06-22T07:30:34.393Z,42.24
2023-06-22T07:33:05.482Z,42.20
2023-06-22T07:35:32.965Z,42.15
2023-06-22T07:38:02.202Z,41.80
2023-06-22T07:40:31.299Z,41.35
2023-06-22T07:42:58.259Z,41.31
2023-06-22T07:45:25.038Z,41.69
2023-06-22T07:47:51.808Z,40.91
2023-06-22T07:50:18.557Z,40.66
2023-06-22T07:52:45.399Z,40.33
2023-06-22T07:55:12.298Z,40.58
2023-06-22T07:57:39.158Z,39.62
2023-06-22T08:00:17.080Z,40.09
2023-06-22T08:02:46.860Z,40.01
2023-06-22T08:07:48.376Z,39.92
2023-06-22T08:10:15.727Z,38.95
2023-06-22T08:12:43.094Z,39.50
2023-06-22T08:15:10.657Z,39.17
2023-06-22T08:17:39.331Z,38.29
2023-06-22T08:20:11.074Z,38.60
2023-06-22T08:22:38.064Z,38.57
2023-06-22T08:25:05.766Z,38.40
2023-06-22T08:27:33.677Z,38.34
2023-06-22T08:30:01.616Z,37.68
2023-06-22T08:32:29.853Z,38.64
2023-06-22T08:34:58.301Z,38.33
2023-06-22T08:37:31.554Z,38.01
2023-06-22T08:40:00.512Z,36.89
2023-06-22T08:42:27.964Z,36.59
2023-06-22T08:44:55.013Z,36.44
2023-06-22T08:47:22.677Z,36.18
2023-06-22T08:49:50.355Z,36.16
2023-06-22T08:52:18.798Z,35.61
2023-06-22T08:54:45.505Z,34.96
2023-06-22T08:57:12.374Z,35.38
2023-06-22T08:59:39.395Z,33.33
2023-06-22T09:02:06.771Z,33.44
2023-06-22T09:04:36.828Z,34.27
2023-06-22T09:07:04.218Z,32.78
2023-06-22T09:09:31.336Z,32.49
2023-06-22T09:11:58.238Z,32.75
2023-06-22T09:14:25.203Z,32.38
2023-06-22T09:16:52.920Z,33.12
2023-06-22T09:19:19.916Z,33.54
2023-06-22T09:21:47.045Z,33.18
2023-06-22T09:24:14.059Z,33.23
2023-06-22T09:26:40.979Z,34.03
2023-06-22T09:29:08.044Z,31.85
2023-06-22T09:31:35.038Z,32.00
2023-06-22T09:34:01.966Z,30.96
2023-06-22T09:36:28.839Z,31.24
2023-06-22T09:39:00.044Z,31.51
2023-06-22T09:41:27.155Z,31.29
2023-06-22T09:43:56.691Z,31.49
2023-06-22T09:46:26.407Z,32.25
2023-06-22T09:48:53.668Z,32.78
2023-06-22T09:51:22.717Z,34.02
2023-06-22T09:53:51.411Z,34.86
2023-06-22T09:56:18.143Z,34.87
2023-06-22T09:58:46.270Z,35.55
2023-06-22T10:01:13.443Z,35.69
2023-06-22T10:03:40.281Z,35.40
2023-06-22T10:06:07.298Z,36.56
2023-06-22T10:08:34.592Z,36.39
2023-06-22T10:11:01.532Z,36.57
2023-06-22T10:13:28.647Z,36.32
2023-06-22T10:15:55.711Z,36.90
2023-06-22T10:18:22.771Z,35.92
2023-06-22T10:20:54.048Z,35.17
2023-06-22T10:23:21.820Z,34.86
2023-06-22T10:25:49.047Z,32.97
2023-06-22T10:28:16.093Z,32.22
2023-06-22T10:30:43.672Z,32.32
2023-06-22T10:33:12.108Z,31.79
2023-06-22T10:35:39.779Z,30.27
2023-06-22T10:38:07.611Z,28.89
2023-06-22T10:40:34.763Z,28.18
2023-06-22T10:43:01.752Z,28.98
2023-06-22T10:45:29.485Z,29.46
2023-06-22T10:47:56.991Z,30.11
2023-06-22T10:50:25.669Z,30.72
2023-06-22T10:52:52.731Z,31.07
2023-06-22T10:55:19.765Z,31.41
2023-06-22T10:57:48.442Z,31.25
2023-06-22T11:00:16.801Z,29.69
2023-06-22T11:02:45.002Z,27.84
2023-06-22T11:05:12.400Z,27.13
2023-06-22T11:10:12.421Z,27.10
2023-06-22T11:12:39.408Z,26.21
2023-06-22T11:15:06.989Z,24.67
2023-06-22T11:17:34.095Z,22.74
2023-06-22T11:20:01.418Z,22.50
2023-06-22T11:22:28.380Z,23.98
2023-06-22T11:24:55.246Z,23.13
2023-06-22T11:27:22.200Z,23.29
2023-06-22T11:29:49.131Z,23.97
2023-06-22T11:32:15.950Z,23.61
2023-06-22T11:34:42.883Z,23.74
2023-06-22T11:37:09.720Z,23.56
2023-06-22T11:39:41.433Z,24.78
2023-06-22T11:42:12.985Z,25.88
2023-06-22T11:44:39.894Z,27.83
2023-06-22T11:47:07.104Z,29.47
2023-06-22T11:49:33.982Z,30.72
2023-06-22T11:52:00.855Z,32.58
2023-06-22T11:54:27.589Z,34.18
2023-06-22T11:56:54.609Z,36.88
2023-06-22T11:59:23.375Z,40.55
2023-06-22T12:01:52.413Z,42.38
2023-06-22T12:04:19.358Z,44.13
2023-06-22T12:06:46.163Z,45.12
2023-06-22T12:09:15.005Z,45.89
2023-06-22T12:11:42.229Z,46.28
2023-06-22T12:14:09.104Z,46.52
2023-06-22T12:16:36.235Z,47.08
2023-06-22T12:19:03.256Z,48.89
2023-06-22T12:21:30.136Z,49.99
2023-06-22T12:23:56.901Z,50.27
2023-06-22T12:26:23.792Z,52.90
2023-06-22T12:28:50.768Z,54.86
2023-06-22T12:31:18.789Z,56.88
2023-06-22T12:33:45.612Z,57.48
2023-06-22T12:36:12.430Z,58.16
2023-06-22T12:38:39.283Z,59.33
2023-06-22T12:41:06.197Z,58.23
2023-06-22T12:43:33.165Z,58.56
2023-06-22T12:46:00.122Z,59.11
2023-06-22T12:48:30.613Z,57.65
2023-06-22T12:50:57.403Z,58.63
2023-06-22T12:53:24.983Z,59.11
2023-06-22T12:55:51.956Z,58.61
2023-06-22T12:58:18.974Z,58.60
2023-06-22T13:00:45.757Z,59.07
2023-06-22T13:03:12.936Z,58.10
2023-06-22T13:05:40.009Z,56.84
2023-06-22T13:08:06.879Z,56.78
2023-06-22T13:10:33.786Z,56.24
2023-06-22T13:13:01.959Z,55.99
2023-06-22T13:15:30.085Z,55.80
2023-06-22T13:17:57.674Z,54.13
2023-06-22T13:20:24.478Z,53.75
2023-06-22T13:22:51.429Z,52.41
2023-06-22T13:25:20.299Z,52.90
2023-06-22T13:27:47.441Z,51.08
2023-06-22T13:30:17.286Z,51.76
2023-06-22T13:32:44.420Z,51.92
2023-06-22T13:35:12.277Z,51.78
2023-06-22T13:37:39.339Z,50.60
2023-06-22T13:40:08.075Z,50.31
2023-06-22T13:42:35.024Z,49.60
2023-06-22T13:45:02.036Z,50.21
2023-06-22T13:47:31.516Z,50.05
2023-06-22T13:49:59.491Z,49.59
2023-06-22T13:52:26.678Z,50.06
2023-06-22T13:54:53.711Z,50.88
2023-06-22T13:57:20.692Z,51.55
2023-06-22T13:59:47.758Z,52.04
2023-06-22T14:02:15.149Z,52.12
2023-06-22T14:04:41.993Z,51.25
2023-06-22T14:07:09.363Z,52.10
2023-06-22T14:09:36.179Z,52.05
2023-06-22T14:12:07.718Z,52.32
2023-06-22T14:14:34.978Z,51.87
2023-06-22T14:17:02.010Z,50.96
2023-06-22T14:19:28.703Z,50.65
2023-06-22T14:21:55.586Z,50.49
2023-06-22T14:24:24.939Z,50.20
2023-06-22T14:26:52.618Z,49.00
2023-06-22T14:29:19.346Z,48.60
2023-06-22T14:31:47.168Z,48.14
2023-06-22T14:34:14.715Z,47.40
2023-06-22T14:36:41.966Z,45.89
2023-06-22T14:39:09.269Z,46.11
2023-06-22T14:41:36.064Z,45.04
2023-06-22T14:44:02.909Z,44.85
2023-06-22T14:46:29.959Z,44.30
2023-06-22T14:48:56.713Z,44.52
2023-06-22T14:51:23.466Z,44.52
2023-06-22T14:53:50.318Z,44.59
2023-06-22T14:56:17.227Z,44.71
2023-06-22T14:58:47.985Z,44.92
2023-06-22T15:01:17.850Z,45.04
2023-06-22T15:03:44.598Z,44.14
2023-06-22T15:06:11.688Z,44.29
2023-06-22T15:08:42.353Z,44.63
2023-06-22T15:11:09.392Z,45.23
2023-06-22T15:13:39.563Z,45.49
2023-06-22T15:16:06.508Z,45.41
2023-06-22T15:18:36.429Z,44.90
2023-06-22T15:21:04.389Z,44.28
2023-06-22T15:23:32.416Z,43.72
2023-06-22T15:26:00.275Z,44.23
2023-06-22T15:28:27.287Z,44.45
2023-06-22T15:30:54.179Z,44.20
2023-06-22T15:33:21.136Z,44.95
2023-06-22T15:35:48.105Z,45.44
2023-06-22T15:38:15.204Z,45.28
2023-06-22T15:40:42.415Z,45.95
2023-06-22T15:43:15.125Z,46.45
2023-06-22T15:45:42.180Z,46.34
2023-06-22T15:48:09.113Z,46.27
2023-06-22T15:50:36.051Z,46.09
2023-06-22T15:53:02.972Z,46.43
2023-06-22T15:55:32.412Z,46.24
2023-06-22T15:57:59.273Z,46.40
2023-06-22T16:00:27.826Z,45.95
2023-06-22T16:02:55.173Z,45.15
2023-06-22T16:05:22.193Z,45.24
2023-06-22T16:07:49.236Z,45.12
2023-06-22T16:10:17.887Z,44.17
2023-06-22T16:12:45.626Z,43.27
2023-06-22T16:15:13.031Z,43.29
2023-06-22T16:17:40.162Z,43.43
2023-06-22T16:20:11.636Z,43.32
2023-06-22T16:22:38.655Z,43.18
2023-06-22T16:25:05.747Z,42.99
2023-06-22T16:27:33.484Z,41.91
2023-06-22T16:30:00.730Z,42.30
2023-06-22T16:32:27.613Z,42.58
2023-06-22T16:34:54.659Z,42.85
2023-06-22T16:37:22.531Z,43.17
2023-06-22T16:39:49.552Z,42.81
2023-06-22T16:42:17.779Z,42.88
2023-06-22T16:44:45.023Z,43.16
2023-06-22T16:47:12.079Z,43.17
2023-06-22T16:49:39.342Z,43.87
2023-06-22T16:52:06.991Z,44.03
2023-06-22T16:54:34.673Z,43.99
2023-06-22T16:57:03.067Z,45.05
2023-06-22T16:59:30.031Z,45.52
2023-06-22T17:01:58.364Z,45.51
2023-06-22T17:04:28.403Z,45.98
2023-06-22T17:07:18.701Z,46.69
2023-06-22T17:09:49.246Z,47.20
2023-06-22T17:12:17.119Z,47.88
2023-06-22T17:14:45.613Z,48.31
2023-06-22T17:17:16.516Z,48.92
2023-06-22T17:19:43.594Z,49.00
2023-06-22T17:22:10.799Z,49.08
2023-06-22T17:24:38.072Z,49.37
2023-06-22T17:27:05.822Z,49.49
2023-06-22T17:29:36.978Z,49.64
2023-06-22T17:32:07.457Z,49.63
2023-06-22T17:34:34.571Z,51.06
2023-06-22T17:37:02.384Z,51.67
2023-06-22T17:39:30.520Z,51.89
2023-06-22T17:41:57.905Z,52.13
2023-06-22T17:44:27.439Z,52.81
2023-06-22T17:46:55.437Z,53.08
2023-06-22T17:49:27.961Z,53.59
2023-06-22T17:51:56.566Z,53.76
2023-06-22T17:54:30.615Z,53.69
2023-06-22T17:57:17.884Z,53.69
2023-06-22T17:59:50.928Z,54.05
2023-06-22T18:02:25.073Z,54.30
2023-06-22T18:04:59.008Z,54.65
2023-06-22T18:07:29.848Z,54.96
2023-06-22T18:09:59.676Z,55.44
2023-06-22T18:12:29.164Z,56.13
2023-06-22T18:14:57.083Z,56.28
2023-06-22T18:17:26.508Z,56.91
2023-06-22T18:19:57.690Z,57.50
2023-06-22T18:22:25.275Z,57.73
2023-06-22T18:24:54.440Z,57.65
2023-06-22T18:27:23.942Z,57.74
2023-06-22T18:29:51.370Z,58.11
2023-06-22T18:32:20.004Z,58.20
2023-06-22T18:34:47.753Z,58.63
2023-06-22T18:37:16.605Z,59.64
2023-06-22T18:39:47.352Z,59.44
2023-06-22T18:42:17.353Z,59.90
2023-06-22T18:44:44.712Z,60.25
2023-06-22T18:47:12.353Z,60.07
2023-06-22T18:49:47.114Z,60.11
2023-06-22T18:52:25.038Z,60.27
2023-06-22T18:54:53.918Z,60.82
2023-06-22T18:57:28.203Z,61.78
2023-06-22T18:59:55.367Z,62.07
2023-06-22T19:02:40.790Z,61.88
2023-06-22T19:05:14.135Z,62.03
2023-06-22T19:07:53.697Z,62.17
2023-06-22T19:10:33.201Z,62.58
2023-06-22T19:13:12.615Z,62.89
2023-06-22T19:15:40.788Z,63.40
2023-06-22T19:18:20.567Z,63.45
2023-06-22T19:20:50.312Z,64.02
2023-06-22T19:23:28.445Z,64.36
2023-06-22T19:25:59.377Z,64.53
2023-06-22T19:28:27.899Z,64.20
2023-06-22T19:30:56.739Z,64.49
2023-06-22T19:33:26.762Z,64.55
2023-06-22T19:35:58.774Z,64.90
2023-06-22T19:38:27.794Z,65.05
2023-06-22T19:40:55.557Z,64.86
2023-06-22T19:43:23.526Z,65.04
2023-06-22T19:45:50.939Z,65.23
2023-06-22T19:48:18.267Z,64.94
2023-06-22T19:50:45.800Z,65.36
2023-06-22T19:53:14.967Z,65.12
2023-06-22T19:55:51.596Z,65.24
2023-06-22T19:58:25.082Z,66.37
2023-06-22T20:00:56.113Z,66.91
2023-06-22T20:03:31.844Z,67.35
2023-06-22T20:06:16.404Z,67.85
2023-06-22T20:08:59.343Z,68.24
2023-06-22T20:11:30.801Z,67.94
2023-06-22T20:13:59.279Z,68.14
2023-06-22T20:16:27.849Z,68.49
2023-06-22T20:19:13.682Z,68.24
2023-06-22T20:21:42.834Z,68.75
2023-06-22T20:24:13.239Z,68.54
2023-06-22T20:26:45.328Z,68.41
2023-06-22T20:29:36.361Z,68.83
2023-06-22T20:32:06.226Z,69.15
2023-06-22T20:34:39.390Z,69.51
2023-06-22T20:37:07.636Z,70.08
2023-06-22T20:39:35.587Z,70.25
2023-06-22T20:42:05.328Z,69.84
2023-06-22T20:44:32.493Z,69.82
2023-06-22T20:46:59.643Z,69.95
2023-06-22T20:49:27.742Z,69.56
2023-06-22T20:51:54.957Z,69.59
2023-06-22T20:54:21.722Z,69.56
2023-06-22T20:56:48.445Z,69.09
2023-06-22T20:59:15.345Z,69.87
2023-06-22T21:01:47.671Z,70.25
2023-06-22T21:04:14.988Z,70.05
2023-06-22T21:06:41.952Z,70.21
2023-06-22T21:09:08.766Z,70.19
2023-06-22T21:11:35.687Z,70.36
2023-06-22T21:14:17.797Z,70.53
2023-06-22T21:16:46.156Z,70.60
2023-06-22T21:19:12.975Z,70.71
2023-06-22T21:21:39.792Z,70.70
2023-06-22T21:24:06.915Z,70.57
2023-06-22T21:26:33.669Z,71.27
2023-06-22T21:29:00.482Z,71.16
2023-06-22T21:31:27.492Z,70.95
2023-06-22T21:33:54.107Z,70.94
2023-06-22T21:36:21.550Z,71.29
2023-06-22T21:38:48.369Z,71.42
2023-06-22T21:41:15.050Z,70.91
2023-06-22T21:43:42.242Z,71.19
2023-06-22T21:46:09.034Z,71.37
2023-06-22T21:48:36.014Z,70.81
2023-06-22T21:51:02.850Z,70.77
2023-06-22T21:53:29.611Z,70.94
2023-06-22T21:55:56.430Z,71.37
2023-06-22T21:58:26.971Z,70.90
2023-06-22T22:00:57.767Z,70.89
2023-06-22T22:03:27.442Z,70.83
2023-06-22T22:05:55.578Z,70.55
2023-06-22T22:08:22.693Z,70.09
2023-06-22T22:10:49.378Z,70.28
2023-06-22T22:13:16.763Z,70.65
2023-06-22T22:15:43.765Z,70.63
2023-06-22T22:18:12.603Z,70.61
2023-06-22T22:20:40.731Z,70.56
2023-06-22T22:23:08.306Z,70.33
2023-06-22T22:25:35.322Z,70.09
2023-06-22T22:28:02.468Z,70.02
2023-06-22T22:30:29.243Z,70.08
2023-06-22T22:32:56.077Z,69.28
2023-06-22T22:35:22.919Z,69.27
2023-06-22T22:37:50.379Z,69.39
2023-06-22T22:40:17.096Z,69.46
2023-06-22T22:42:43.963Z,69.74
2023-06-22T22:45:11.665Z,69.56
2023-06-22T22:47:38.452Z,69.66
2023-06-22T22:50:05.894Z,69.69
2023-06-22T22:52:32.684Z,69.90
2023-06-22T22:55:00.359Z,69.67
2023-06-22T22:57:29.180Z,69.84
2023-06-22T22:59:56.219Z,69.58
2023-06-22T23:05:00.489Z,70.17
2023-06-22T23:07:29.071Z,69.95
2023-06-22T23:09:56.858Z,70.19
2023-06-22T23:12:24.907Z,70.21
2023-06-22T23:14:51.798Z,70.12
2023-06-22T23:17:18.918Z,70.69
2023-06-22T23:19:46.076Z,70.99
2023-06-22T23:22:13.636Z,70.98
2023-06-22T23:24:40.392Z,71.08
2023-06-22T23:27:09.057Z,71.24
2023-06-22T23:29:36.170Z,71.49
2023-06-22T23:32:03.467Z,71.33
2023-06-22T23:34:30.592Z,71.09
2023-06-22T23:36:58.704Z,71.38
2023-06-22T23:39:25.497Z,71.59
2023-06-22T23:41:52.487Z,71.54
2023-06-22T23:44:19.264Z,71.22
2023-06-22T23:46:46.134Z,71.47
2023-06-22T23:49:12.944Z,71.29
2023-06-22T23:51:39.544Z,71.18
2023-06-22T23:54:06.452Z,71.08
2023-06-22T23:56:33.446Z,71.42
2023-06-22T23:59:00.307Z,71.04
